createdAt,value
2023-03-22T00:01:28.718Z,18.45
2023-03-22T00:03:56.215Z,11.60
2023-03-22T00:06:24.003Z,16.25
2023-03-22T00:08:53.300Z,14.40
2023-03-22T00:11:24.099Z,12.15
2023-03-22T00:13:52.502Z,14.25
2023-03-22T00:16:21.633Z,13.07
2023-03-22T00:18:48.655Z,17.15
2023-03-22T00:21:17.511Z,13.93
2023-03-22T00:23:45.500Z,15.60
2023-03-22T00:26:14.864Z,12.80
2023-03-22T00:28:43.564Z,14.80
2023-03-22T00:31:11.391Z,18.13
2023-03-22T00:33:38.920Z,11.02
2023-03-22T00:36:09.573Z,11.60
2023-03-22T00:38:44.954Z,11.02
2023-03-22T00:41:20.441Z,11.13
2023-03-22T00:43:49.321Z,12.00
2023-03-22T00:46:19.249Z,14.18
2023-03-22T00:48:47.742Z,10.48
2023-03-22T00:51:15.965Z,12.43
2023-03-22T00:53:43.938Z,12.68
2023-03-22T00:56:15.508Z,10.40
2023-03-22T00:58:46.467Z,11.13
2023-03-22T01:01:14.282Z,12.60
2023-03-22T01:03:43.531Z,11.55
2023-03-22T01:06:13.982Z,11.95
2023-03-22T01:08:41.590Z,12.25
2023-03-22T01:11:09.946Z,11.27
2023-03-22T01:13:37.733Z,11.82
2023-03-22T01:16:07.441Z,12.70
2023-03-22T01:18:35.901Z,11.52
2023-03-22T01:21:03.535Z,10.48
2023-03-22T01:23:30.761Z,11.40
2023-03-22T01:25:58.519Z,14.13
2023-03-22T01:28:27.166Z,9.75
2023-03-22T01:31:00.937Z,14.25
2023-03-22T01:33:27.863Z,12.73
2023-03-22T01:35:55.378Z,13.60
2023-03-22T01:38:22.779Z,15.00
2023-03-22T01:40:57.398Z,17.55
2023-03-22T01:43:25.241Z,13.20
2023-03-22T01:45:54.169Z,17.45
2023-03-22T01:48:34.799Z,14.88
2023-03-22T01:51:10.313Z,15.50
2023-03-22T01:54:12.940Z,15.20
2023-03-22T01:56:42.187Z,16.95
2023-03-22T01:59:15.988Z,13.88
2023-03-22T02:02:03.398Z,18.40
2023-03-22T02:04:39.154Z,16.63
2023-03-22T02:07:15.687Z,18.58
2023-03-22T02:09:46.996Z,11.05
2023-03-22T02:12:40.751Z,11.55
2023-03-22T02:15:42.799Z,12.77
2023-03-22T02:18:46.261Z,12.68
2023-03-22T02:21:21.896Z,18.42
2023-03-22T02:24:35.182Z,16.38
2023-03-22T02:27:18.395Z,18.35
2023-03-22T02:30:25.857Z,17.25
2023-03-22T02:33:24.877Z,16.67
2023-03-22T02:35:57.776Z,20.05
2023-03-22T02:39:01.519Z,13.05
2023-03-22T02:41:38.556Z,14.38
2023-03-22T02:44:26.055Z,12.93
2023-03-22T02:47:07.576Z,10.38
2023-03-22T02:49:41.459Z,11.27
2023-03-22T02:52:19.335Z,9.73
2023-03-22T02:55:09.816Z,13.70
2023-03-22T02:58:02.694Z,12.85
2023-03-22T03:00:32.832Z,11.77
2023-03-22T03:03:12.736Z,13.07
2023-03-22T03:05:55.168Z,12.68
2023-03-22T03:08:25.266Z,10.95
2023-03-22T03:10:53.874Z,14.48
2023-03-22T03:13:21.203Z,12.38
2023-03-22T03:15:57.417Z,13.55
2023-03-22T03:18:40.629Z,12.07
2023-03-22T03:21:52.737Z,15.43
2023-03-22T03:24:57.539Z,10.77
2023-03-22T03:27:37.256Z,15.27
2023-03-22T03:30:19.914Z,16.35
2023-03-22T03:33:18.005Z,12.05
2023-03-22T03:35:53.365Z,20.90
2023-03-22T03:38:27.592Z,14.50
2023-03-22T03:41:12.649Z,12.77
2023-03-22T03:43:41.406Z,15.65
2023-03-22T03:46:09.625Z,14.40
2023-03-22T03:48:53.488Z,16.25
2023-03-22T03:51:28.375Z,14.50
2023-03-22T03:53:57.326Z,13.65
2023-03-22T03:56:56.078Z,17.23
2023-03-22T03:59:32.674Z,11.98
2023-03-22T04:02:13.118Z,19.88
2023-03-22T04:04:45.025Z,14.82
2023-03-22T04:07:18.904Z,16.40
2023-03-22T04:09:49.688Z,15.32
2023-03-22T04:12:22.317Z,15.75
2023-03-22T04:15:12.139Z,12.77
2023-03-22T04:17:41.482Z,15.68
2023-03-22T04:20:12.449Z,16.90
2023-03-22T04:22:41.837Z,16.02
2023-03-22T04:25:13.367Z,17.27
2023-03-22T04:27:51.145Z,15.52
2023-03-22T04:30:20.257Z,15.07
2023-03-22T04:33:07.156Z,17.20
2023-03-22T04:35:56.792Z,13.65
2023-03-22T04:38:29.709Z,21.73
2023-03-22T04:40:57.816Z,13.77
2023-03-22T04:43:35.544Z,12.13
2023-03-22T04:46:10.170Z,16.58
2023-03-22T04:48:43.796Z,17.27
2023-03-22T04:51:11.934Z,15.57
2023-03-22T04:53:47.301Z,13.23
2023-03-22T04:56:15.661Z,17.13
2023-03-22T04:58:45.338Z,17.63
2023-03-22T05:01:16.698Z,13.85
2023-03-22T05:03:47.302Z,17.63
2023-03-22T05:06:16.375Z,14.57
2023-03-22T05:08:57.279Z,17.45
2023-03-22T05:11:27.647Z,15.00
2023-03-22T05:14:30.251Z,8.35
2023-03-22T05:16:57.729Z,12.02
2023-03-22T05:19:24.872Z,11.95
2023-03-22T05:21:58.084Z,9.95
2023-03-22T05:24:36.329Z,11.43
2023-03-22T05:27:04.138Z,13.35
2023-03-22T05:29:36.795Z,8.77
2023-03-22T05:32:11.710Z,11.38
2023-03-22T05:34:41.806Z,8.13
2023-03-22T05:37:21.078Z,11.23
2023-03-22T05:39:51.879Z,10.07
2023-03-22T05:42:19.588Z,7.68
2023-03-22T05:44:46.487Z,14.40
2023-03-22T05:47:13.821Z,9.35
2023-03-22T05:49:55.930Z,9.65
2023-03-22T05:52:24.968Z,12.30
2023-03-22T05:55:08.109Z,8.52
2023-03-22T05:57:41.297Z,8.13
2023-03-22T06:00:17.934Z,11.50
2023-03-22T06:03:15.142Z,9.27
2023-03-22T06:05:59.884Z,14.05
2023-03-22T06:09:15.998Z,9.73
2023-03-22T06:11:52.385Z,8.52
2023-03-22T06:14:33.231Z,8.43
2023-03-22T06:17:24.453Z,6.70
2023-03-22T06:19:55.121Z,7.15
2023-03-22T06:22:23.830Z,12.80
2023-03-22T06:24:52.629Z,9.10
2023-03-22T06:27:29.757Z,5.30
2023-03-22T06:29:56.684Z,8.40
2023-03-22T06:32:27.091Z,9.90
2023-03-22T06:34:56.250Z,9.07
2023-03-22T06:37:25.352Z,9.82
2023-03-22T06:39:53.251Z,9.23
2023-03-22T06:42:22.989Z,7.28
2023-03-22T06:45:01.072Z,7.72
2023-03-22T06:47:31.794Z,11.55
2023-03-22T06:50:01.822Z,9.20
2023-03-22T06:52:48.704Z,8.70
2023-03-22T06:55:16.002Z,6.43
2023-03-22T06:57:42.901Z,11.45
2023-03-22T07:00:10.994Z,8.25
2023-03-22T07:02:37.859Z,7.95
2023-03-22T07:05:16.459Z,8.98
2023-03-22T07:07:43.832Z,10.63
2023-03-22T07:10:10.809Z,9.07
2023-03-22T07:12:38.520Z,9.85
2023-03-22T07:15:11.076Z,10.43
2023-03-22T07:18:04.535Z,5.18
2023-03-22T07:20:38.433Z,5.53
2023-03-22T07:23:05.682Z,5.32
2023-03-22T07:25:39.037Z,6.43
2023-03-22T07:28:22.437Z,8.05
2023-03-22T07:30:49.420Z,11.18
2023-03-22T07:33:19.232Z,9.18
2023-03-22T07:35:46.414Z,10.98
2023-03-22T07:38:13.330Z,6.93
2023-03-22T07:40:41.464Z,7.13
2023-03-22T07:43:11.971Z,6.53
2023-03-22T07:46:07.985Z,9.32
2023-03-22T07:48:53.264Z,9.50
2023-03-22T07:54:07.701Z,8.20
2023-03-22T07:56:35.238Z,12.88
2023-03-22T07:59:02.237Z,8.70
2023-03-22T08:01:29.396Z,6.90
2023-03-22T08:04:05.247Z,10.82
2023-03-22T08:06:46.621Z,7.72
2023-03-22T08:09:13.571Z,7.97
2023-03-22T08:11:41.172Z,13.93
2023-03-22T08:14:09.292Z,7.65
2023-03-22T08:16:38.445Z,8.10
2023-03-22T08:19:06.059Z,7.07
2023-03-22T08:21:36.525Z,9.80
2023-03-22T08:24:06.301Z,4.07
2023-03-22T08:26:54.722Z,8.05
2023-03-22T08:29:32.121Z,7.28
2023-03-22T08:32:02.183Z,5.45
2023-03-22T08:34:31.206Z,11.75
2023-03-22T08:36:58.092Z,8.30
2023-03-22T08:39:26.113Z,10.18
2023-03-22T08:42:05.501Z,7.97
2023-03-22T08:44:32.625Z,4.85
2023-03-22T08:47:04.534Z,10.13
2023-03-22T08:49:32.359Z,5.57
2023-03-22T08:52:07.313Z,12.88
2023-03-22T08:54:42.776Z,5.38
2023-03-22T08:57:50.296Z,6.28
2023-03-22T09:00:25.140Z,7.35
2023-03-22T09:03:19.464Z,8.37
2023-03-22T09:05:46.540Z,7.88
2023-03-22T09:08:19.088Z,8.57
2023-03-22T09:13:21.898Z,13.82
2023-03-22T09:15:54.695Z,10.23
2023-03-22T09:18:27.696Z,9.32
2023-03-22T09:20:58.549Z,7.63
2023-03-22T09:23:32.160Z,4.45
2023-03-22T09:26:02.113Z,5.75
2023-03-22T09:28:30.908Z,7.05
2023-03-22T09:31:07.273Z,10.02
2023-03-22T09:33:38.498Z,11.48
2023-03-22T09:36:11.887Z,5.75
2023-03-22T09:39:06.541Z,4.15
2023-03-22T09:41:51.608Z,4.32
2023-03-22T09:44:26.986Z,5.13
2023-03-22T09:46:59.856Z,8.70
2023-03-22T09:49:52.647Z,12.07
2023-03-22T09:52:20.721Z,11.85
2023-03-22T09:54:47.705Z,5.97
2023-03-22T09:57:28.997Z,8.68
2023-03-22T10:00:20.887Z,6.38
2023-03-22T10:03:24.959Z,4.00
2023-03-22T10:06:22.957Z,6.63
2023-03-22T10:08:58.688Z,8.50
2023-03-22T10:12:14.248Z,8.07
2023-03-22T10:15:04.578Z,8.57
2023-03-22T10:17:32.281Z,10.38
2023-03-22T10:20:27.102Z,8.18
2023-03-22T10:22:58.160Z,11.85
2023-03-22T10:25:39.799Z,6.63
2023-03-22T10:28:31.412Z,8.80
2023-03-22T10:30:59.036Z,6.70
2023-03-22T10:33:50.512Z,6.22
2023-03-22T10:36:22.797Z,6.13
2023-03-22T10:38:57.621Z,4.65
2023-03-22T10:41:28.619Z,5.20
2023-03-22T10:44:00.692Z,10.82
2023-03-22T10:46:35.913Z,9.18
2023-03-22T10:49:06.271Z,6.00
2023-03-22T10:51:47.720Z,7.13
2023-03-22T10:54:19.082Z,5.65
2023-03-22T10:56:46.289Z,6.57
2023-03-22T10:59:51.133Z,9.07
2023-03-22T11:02:26.405Z,6.78
2023-03-22T11:05:04.357Z,8.88
2023-03-22T11:07:42.646Z,6.82
2023-03-22T11:10:09.609Z,7.13
2023-03-22T11:13:18.901Z,12.55
2023-03-22T11:16:02.230Z,11.05
2023-03-22T11:18:33.451Z,6.40
2023-03-22T11:21:07.890Z,12.57
2023-03-22T11:23:38.589Z,5.90
2023-03-22T11:26:13.320Z,7.75
2023-03-22T11:28:50.287Z,8.40
2023-03-22T11:31:21.143Z,4.72
2023-03-22T11:34:01.160Z,4.60
2023-03-22T11:36:29.204Z,9.00
2023-03-22T11:39:06.051Z,8.70
2023-03-22T11:41:39.241Z,7.13
2023-03-22T11:44:13.234Z,4.57
2023-03-22T11:46:49.680Z,6.10
2023-03-22T11:49:18.337Z,6.15
2023-03-22T11:51:46.218Z,8.40
2023-03-22T11:54:35.586Z,5.45
2023-03-22T11:57:15.562Z,7.00
2023-03-22T12:00:15.085Z,6.38
2023-03-22T12:02:51.658Z,7.55
2023-03-22T12:05:27.189Z,3.33
2023-03-22T12:08:17.908Z,7.95
2023-03-22T12:10:53.607Z,9.07
2023-03-22T12:13:32.942Z,10.50
2023-03-22T12:16:05.925Z,5.40
2023-03-22T12:18:44.570Z,5.38
2023-03-22T12:21:11.971Z,8.43
2023-03-22T12:23:39.258Z,8.65
2023-03-22T12:26:14.407Z,8.38
2023-03-22T12:28:59.044Z,12.48
2023-03-22T12:32:11.816Z,9.38
2023-03-22T12:34:51.084Z,8.15
2023-03-22T12:37:42.320Z,6.72
2023-03-22T12:40:38.429Z,5.20
2023-03-22T12:43:21.747Z,10.02
2023-03-22T12:45:59.424Z,6.82
2023-03-22T12:48:50.528Z,9.90
2023-03-22T12:51:17.688Z,9.77
2023-03-22T12:53:53.995Z,8.52
2023-03-22T12:56:29.594Z,5.88
2023-03-22T12:59:04.536Z,5.18
2023-03-22T13:02:01.061Z,5.00
2023-03-22T13:04:37.023Z,3.58
2023-03-22T13:07:31.066Z,7.15
2023-03-22T13:10:00.195Z,8.93
2023-03-22T13:12:31.893Z,6.60
2023-03-22T13:15:04.273Z,6.90
2023-03-22T13:17:33.412Z,6.47
2023-03-22T13:20:06.754Z,6.95
2023-03-22T13:22:37.259Z,8.30
2023-03-22T13:25:12.310Z,8.45
2023-03-22T13:30:21.744Z,6.22
2023-03-22T13:32:54.609Z,13.70
2023-03-22T13:35:41.942Z,9.43
2023-03-22T13:38:20.151Z,11.13
2023-03-22T13:41:03.924Z,6.43
2023-03-22T13:43:44.587Z,5.20
2023-03-22T13:46:44.658Z,8.55
2023-03-22T13:49:42.580Z,6.75
2023-03-22T13:52:24.134Z,9.52
2023-03-22T13:54:54.165Z,6.82
2023-03-22T13:57:56.928Z,7.28
2023-03-22T14:00:30.220Z,9.45
2023-03-22T14:03:04.117Z,10.82
2023-03-22T14:05:36.476Z,7.25
2023-03-22T14:08:04.363Z,6.18
2023-03-22T14:10:43.375Z,6.03
2023-03-22T14:13:43.638Z,14.23
2023-03-22T14:16:35.683Z,8.82
2023-03-22T14:19:07.139Z,7.50
2023-03-22T14:21:41.376Z,6.38
